createdAt,value
2019-05-13T00:01:54.878Z,99.90
2019-05-13T00:04:55.768Z,99.90
2019-05-13T00:07:56.260Z,99.90
2019-05-13T00:10:57.579Z,99.90
2019-05-13T00:13:58.072Z,99.90
2019-05-13T00:16:58.800Z,99.90
2019-05-13T00:19:59.753Z,99.90
2019-05-13T00:23:00.720Z,99.90
2019-05-13T00:26:03.800Z,99.90
2019-05-13T00:29:05.027Z,99.90
2019-05-13T00:32:06.321Z,99.90
2019-05-13T00:35:07.801Z,99.90
2019-05-13T00:38:08.918Z,99.90
2019-05-13T00:41:09.767Z,99.90
2019-05-13T00:44:10.558Z,99.90
2019-05-13T00:47:13.254Z,99.90
2019-05-13T00:50:14.791Z,99.90
2019-05-13T00:53:15.443Z,99.90
2019-05-13T00:56:16.480Z,99.90
2019-05-13T00:59:16.831Z,99.90
2019-05-13T01:02:17.569Z,99.90
2019-05-13T01:05:18.307Z,99.90
2019-05-13T01:08:19.663Z,99.90
2019-05-13T01:11:20.416Z,99.90
2019-05-13T01:14:23.372Z,99.90
2019-05-13T01:17:24.381Z,99.90
2019-05-13T01:20:25.259Z,99.90
2019-05-13T01:23:25.949Z,99.90
2019-05-13T01:26:26.820Z,99.90
2019-05-13T01:29:27.750Z,99.90
2019-05-13T01:32:28.451Z,99.90
2019-05-13T01:35:29.898Z,99.90
2019-05-13T01:38:31.238Z,99.90
2019-05-13T01:41:33.373Z,99.90
2019-05-13T01:44:34.474Z,99.90
2019-05-13T01:47:35.787Z,99.90
2019-05-13T01:50:37.035Z,99.90
2019-05-13T01:53:38.213Z,99.90
2019-05-13T01:56:38.892Z,99.90
2019-05-13T01:59:39.804Z,99.90
2019-05-13T02:05:24.203Z,99.90
2019-05-13T02:11:08.830Z,99.90
2019-05-13T02:14:10.013Z,99.90
2019-05-13T02:17:10.613Z,99.90
2019-05-13T02:20:14.482Z,99.90
2019-05-13T02:23:14.510Z,99.90
2019-05-13T02:26:15.500Z,99.90
2019-05-13T02:29:16.045Z,99.90
2019-05-13T02:32:16.779Z,99.90
2019-05-13T02:35:17.682Z,99.90
2019-05-13T02:38:24.842Z,99.90
2019-05-13T02:41:22.802Z,99.90
2019-05-13T02:44:24.226Z,99.90
2019-05-13T02:47:25.097Z,99.90
2019-05-13T02:50:25.722Z,99.90
2019-05-13T02:53:26.395Z,99.90
2019-05-13T02:56:27.070Z,99.90
2019-05-13T02:59:28.318Z,99.90
2019-05-13T03:02:32.581Z,99.90
2019-05-13T03:05:32.026Z,99.90
2019-05-13T03:08:43.675Z,99.90
2019-05-13T03:11:36.440Z,99.90
2019-05-13T03:14:37.391Z,99.90
2019-05-13T03:17:43.449Z,99.90
2019-05-13T03:20:44.257Z,99.90
2019-05-13T03:23:45.069Z,99.90
2019-05-13T03:26:46.231Z,99.90
2019-05-13T03:29:47.130Z,99.90
2019-05-13T03:32:58.504Z,99.90
2019-05-13T03:35:55.029Z,99.90
2019-05-13T03:39:05.303Z,99.90
2019-05-13T03:41:55.239Z,99.90
2019-05-13T03:44:55.843Z,99.90
2019-05-13T03:47:56.657Z,99.90
2019-05-13T03:50:45.311Z,99.90
2019-05-13T03:53:45.851Z,99.90
2019-05-13T03:56:46.582Z,99.90
2019-05-13T03:59:47.049Z,99.90
2019-05-13T04:02:47.436Z,99.90
2019-05-13T04:05:47.753Z,99.90
2019-05-13T04:08:48.870Z,99.90
2019-05-13T04:11:52.374Z,99.90
2019-05-13T04:14:52.890Z,99.90
2019-05-13T04:17:53.717Z,99.90
2019-05-13T04:20:54.101Z,99.90
2019-05-13T04:23:54.428Z,99.90
2019-05-13T04:26:55.066Z,99.90
2019-05-13T04:29:55.518Z,99.90
2019-05-13T04:32:56.173Z,99.90
2019-05-13T04:35:56.520Z,99.90
2019-05-13T04:38:56.839Z,99.90
2019-05-13T04:41:57.363Z,99.90
2019-05-13T04:44:57.742Z,99.90
2019-05-13T04:47:58.069Z,99.90
2019-05-13T04:51:02.709Z,99.90
2019-05-13T04:54:02.801Z,99.90
2019-05-13T04:57:03.706Z,99.90
2019-05-13T05:00:05.078Z,99.90
2019-05-13T05:03:05.515Z,99.90
2019-05-13T05:06:06.497Z,99.90
2019-05-13T05:09:07.147Z,99.90
2019-05-13T05:12:07.561Z,99.90
2019-05-13T05:15:08.455Z,99.90
2019-05-13T05:18:11.664Z,99.90
2019-05-13T05:21:12.064Z,99.90
2019-05-13T05:24:12.842Z,99.90
2019-05-13T05:27:13.256Z,99.90
2019-05-13T05:30:13.965Z,99.90
2019-05-13T05:33:14.193Z,99.90
2019-05-13T05:36:15.141Z,99.90
2019-05-13T05:39:15.780Z,99.90
2019-05-13T05:42:18.086Z,99.90
2019-05-13T05:45:22.734Z,99.90
2019-05-13T05:48:23.185Z,99.90
2019-05-13T05:51:23.561Z,99.90
2019-05-13T05:54:23.917Z,99.90
2019-05-13T05:57:24.517Z,99.90
2019-05-13T06:00:25.101Z,99.90
2019-05-13T06:03:25.549Z,99.90
2019-05-13T06:06:25.930Z,99.90
2019-05-13T06:09:26.797Z,99.90
2019-05-13T06:12:27.569Z,99.90
2019-05-13T06:15:28.021Z,99.90
2019-05-13T06:18:28.314Z,99.90
2019-05-13T06:21:28.710Z,99.90
2019-05-13T06:24:31.243Z,99.90
2019-05-13T06:27:31.855Z,99.90
2019-05-13T06:30:32.929Z,99.90
2019-05-13T06:33:33.479Z,99.90
2019-05-13T06:36:33.781Z,99.90
2019-05-13T06:39:34.329Z,99.90
2019-05-13T06:42:35.429Z,99.90
2019-05-13T06:45:36.021Z,99.90
2019-05-13T06:48:36.605Z,99.90
2019-05-13T06:51:36.947Z,99.90
2019-05-13T06:54:38.146Z,99.90
2019-05-13T06:57:38.488Z,99.90
2019-05-13T07:00:39.185Z,99.90
2019-05-13T07:03:41.804Z,99.90
2019-05-13T07:06:42.118Z,99.90
2019-05-13T07:09:43.169Z,99.90
2019-05-13T07:12:43.794Z,99.90
2019-05-13T07:15:44.449Z,99.90
2019-05-13T07:18:45.017Z,99.90
2019-05-13T07:21:45.714Z,99.90
2019-05-13T07:24:46.276Z,99.90
2019-05-13T07:27:47.410Z,99.90
2019-05-13T07:30:47.766Z,99.90
2019-05-13T07:33:48.309Z,99.90
2019-05-13T07:36:51.285Z,99.90
2019-05-13T07:39:53.060Z,99.90
2019-05-13T07:42:53.436Z,99.90
2019-05-13T07:45:53.724Z,99.90
2019-05-13T07:48:54.396Z,99.90
2019-05-13T07:51:55.118Z,99.90
2019-05-13T07:54:56.335Z,99.90
2019-05-13T07:57:57.573Z,99.90
2019-05-13T08:00:58.121Z,99.90
2019-05-13T08:03:58.514Z,99.90
2019-05-13T08:07:01.626Z,99.90
2019-05-13T08:10:03.483Z,99.90
2019-05-13T08:13:03.615Z,99.90
2019-05-13T08:16:04.360Z,99.90
2019-05-13T08:19:04.910Z,99.90
2019-05-13T08:22:05.864Z,99.90
2019-05-13T08:25:06.568Z,99.90
2019-05-13T08:28:07.043Z,99.90
2019-05-13T08:31:07.480Z,99.90
2019-05-13T08:34:11.749Z,99.90
2019-05-13T08:37:12.548Z,99.90
2019-05-13T08:40:13.014Z,99.90
2019-05-13T08:43:13.456Z,99.90
2019-05-13T08:46:15.153Z,99.90
2019-05-13T08:49:15.426Z,99.90
2019-05-13T08:52:16.151Z,99.90
2019-05-13T08:55:16.969Z,99.90
2019-05-13T08:58:17.462Z,99.90
2019-05-13T09:01:17.934Z,99.90
2019-05-13T09:04:18.982Z,99.90
2019-05-13T09:07:23.910Z,99.90
2019-05-13T09:10:22.405Z,99.90
2019-05-13T09:13:51.695Z,99.90
2019-05-13T09:16:52.957Z,99.90
2019-05-13T09:19:53.429Z,99.90
2019-05-13T09:22:53.978Z,99.90
2019-05-13T09:25:54.558Z,99.90
2019-05-13T09:28:55.582Z,99.90
2019-05-13T09:31:56.933Z,99.90
2019-05-13T09:34:57.289Z,99.90
2019-05-13T09:37:58.265Z,99.90
2019-05-13T09:40:58.774Z,99.90
2019-05-13T09:44:02.101Z,99.90
2019-05-13T09:47:03.102Z,99.90
2019-05-13T09:50:04.601Z,99.90
2019-05-13T09:53:05.443Z,99.90
2019-05-13T09:56:06.056Z,99.90
2019-05-13T09:59:07.006Z,99.90
2019-05-13T10:02:07.529Z,99.90
2019-05-13T10:05:11.195Z,99.90
2019-05-13T10:08:12.521Z,99.90
2019-05-13T10:11:13.573Z,99.90
2019-05-13T10:14:15.205Z,99.90
2019-05-13T10:17:16.794Z,99.90
2019-05-13T10:20:18.501Z,99.90
2019-05-13T10:23:21.870Z,99.90
2019-05-13T10:26:22.610Z,99.90
2019-05-13T10:29:24.277Z,99.90
2019-05-13T10:32:25.522Z,99.90
2019-05-13T10:35:26.618Z,99.90
2019-05-13T10:38:28.195Z,99.90
2019-05-13T10:41:29.444Z,99.90
2019-05-13T10:44:18.810Z,99.90
2019-05-13T10:47:27.235Z,99.90
2019-05-13T10:50:27.791Z,99.90
2019-05-13T10:53:31.783Z,99.90
2019-05-13T10:56:19.406Z,99.90
2019-05-13T10:59:27.362Z,99.90
2019-05-13T11:02:28.173Z,99.90
2019-05-13T11:05:28.669Z,99.90
2019-05-13T11:08:29.346Z,99.90
2019-05-13T11:11:32.965Z,99.90
2019-05-13T11:14:32.558Z,99.90
2019-05-13T11:17:33.817Z,99.90
2019-05-13T11:23:38.781Z,99.50
2019-05-13T11:26:41.649Z,99.80
2019-05-13T11:29:41.722Z,99.90
2019-05-13T11:32:43.029Z,99.60
2019-05-13T11:35:44.585Z,99.40
2019-05-13T11:38:45.732Z,99.90
2019-05-13T11:41:47.117Z,97.70
2019-05-13T11:44:52.523Z,95.40
2019-05-13T11:47:52.283Z,95.90
2019-05-13T11:50:54.248Z,94.40
2019-05-13T11:53:55.849Z,94.80
2019-05-13T11:57:02.735Z,96.30
2019-05-13T12:00:02.315Z,94.50
2019-05-13T12:03:04.215Z,75.80
2019-05-13T12:06:04.845Z,76.00
2019-05-13T12:09:06.159Z,70.00
2019-05-13T12:12:07.166Z,59.60
2019-05-13T12:15:38.132Z,55.90
2019-05-13T12:18:12.604Z,58.00
2019-05-13T12:21:13.772Z,57.40
2019-05-13T12:24:14.701Z,57.40
2019-05-13T12:27:15.409Z,59.00
2019-05-13T12:30:15.974Z,59.70
2019-05-13T12:33:17.133Z,61.00
2019-05-13T12:36:19.075Z,61.40
2019-05-13T12:39:23.526Z,62.50
2019-05-13T12:42:22.957Z,63.50
2019-05-13T12:45:23.614Z,64.10
2019-05-13T12:48:24.222Z,62.90
2019-05-13T12:51:25.092Z,62.20
2019-05-13T12:54:26.354Z,62.30
2019-05-13T12:57:27.388Z,63.10
2019-05-13T13:00:28.064Z,58.00
2019-05-13T13:03:29.238Z,57.70
2019-05-13T13:06:36.065Z,53.70
2019-05-13T13:09:33.716Z,52.80
2019-05-13T13:12:36.422Z,54.20
2019-05-13T13:15:42.253Z,58.40
2019-05-13T13:18:43.499Z,60.30
2019-05-13T13:21:44.220Z,58.30
2019-05-13T13:24:51.573Z,59.30
2019-05-13T13:28:08.995Z,59.80
2019-05-13T13:30:52.883Z,61.10
2019-05-13T13:33:55.780Z,63.60
2019-05-13T13:36:57.648Z,57.20
2019-05-13T13:39:59.262Z,56.40
2019-05-13T13:43:05.312Z,60.50
2019-05-13T13:46:08.569Z,56.70
2019-05-13T13:49:06.527Z,57.90
2019-05-13T13:52:08.187Z,58.50
2019-05-13T13:55:15.313Z,58.00
2019-05-13T14:01:20.217Z,56.50
2019-05-13T14:04:18.626Z,58.10
2019-05-13T14:06:59.166Z,56.50
2019-05-13T14:07:31.047Z,57.30
2019-05-13T14:10:22.398Z,57.50
2019-05-13T14:13:23.367Z,56.90
2019-05-13T14:16:31.242Z,58.30
2019-05-13T14:19:28.462Z,58.00
2019-05-13T14:22:32.281Z,58.30
2019-05-13T14:25:33.544Z,58.20
2019-05-13T14:28:35.000Z,57.20
2019-05-13T14:31:24.543Z,58.30
2019-05-13T14:34:33.083Z,57.50
2019-05-13T14:37:34.642Z,55.60
2019-05-13T14:40:35.943Z,56.20
2019-05-13T14:43:37.163Z,55.60
2019-05-13T14:46:47.037Z,54.50
2019-05-13T14:49:42.312Z,52.90
2019-05-13T14:52:44.214Z,51.00
2019-05-13T14:55:46.050Z,50.90
2019-05-13T14:58:47.022Z,51.60
2019-05-13T15:01:48.450Z,53.80
2019-05-13T15:04:52.187Z,52.20
2019-05-13T15:07:42.167Z,52.70
2019-05-13T15:14:02.230Z,51.20
2019-05-13T15:17:07.300Z,49.10
2019-05-13T15:20:05.705Z,49.90
2019-05-13T15:23:07.511Z,50.30
2019-05-13T15:26:11.041Z,49.10
2019-05-13T15:29:12.705Z,47.90
2019-05-13T15:32:14.304Z,48.50
2019-05-13T15:35:15.663Z,48.40
2019-05-13T15:38:17.485Z,46.40
2019-05-13T15:41:18.907Z,46.60
2019-05-13T15:44:21.998Z,46.30
2019-05-13T15:47:26.339Z,44.60
2019-05-13T15:50:25.653Z,45.70
2019-05-13T15:53:27.383Z,47.60
2019-05-13T15:56:31.259Z,45.70
2019-05-13T15:59:32.756Z,45.20
2019-05-13T16:02:34.163Z,45.40
2019-05-13T16:05:35.570Z,44.90
2019-05-13T16:08:37.152Z,45.20
2019-05-13T16:11:41.250Z,45.40
2019-05-13T16:14:42.092Z,44.90
2019-05-13T16:17:45.082Z,45.30
2019-05-13T16:20:46.899Z,45.10
2019-05-13T16:23:48.262Z,44.70
2019-05-13T16:26:52.163Z,46.40
2019-05-13T16:29:53.230Z,46.80
2019-05-13T16:32:42.634Z,46.70
2019-05-13T16:35:51.694Z,47.20
2019-05-13T16:38:54.382Z,46.20
2019-05-13T16:41:43.535Z,46.10
2019-05-13T16:44:44.439Z,47.70
2019-05-13T16:47:56.687Z,47.30
2019-05-13T16:50:48.878Z,48.40
2019-05-13T16:53:52.326Z,48.30
2019-05-13T16:56:53.554Z,47.10
2019-05-13T16:59:55.035Z,46.50
2019-05-13T17:02:44.256Z,47.30
2019-05-13T17:05:52.780Z,46.70
2019-05-13T17:08:55.501Z,47.30
2019-05-13T17:11:44.798Z,48.50
2019-05-13T17:14:53.409Z,48.50
2019-05-13T17:18:08.383Z,49.30
2019-05-13T17:20:46.070Z,50.10
2019-05-13T17:23:57.610Z,49.50
2019-05-13T17:26:46.809Z,49.30
2019-05-13T17:29:55.298Z,49.90
2019-05-13T17:32:56.029Z,50.50
2019-05-13T17:35:57.011Z,50.90
2019-05-13T17:38:57.878Z,51.00
2019-05-13T17:45:14.503Z,51.70
2019-05-13T17:51:32.647Z,51.70
2019-05-13T17:54:33.597Z,52.50
2019-05-13T17:57:34.203Z,52.40
2019-05-13T18:00:34.979Z,51.50
2019-05-13T18:03:37.754Z,51.40
2019-05-13T18:06:38.253Z,51.10
2019-05-13T18:09:36.894Z,51.50
2019-05-13T18:12:37.401Z,51.80
2019-05-13T18:15:38.513Z,52.10
2019-05-13T18:18:44.161Z,52.10
2019-05-13T18:21:44.675Z,52.80
2019-05-13T18:24:45.125Z,53.10
2019-05-13T18:27:45.590Z,53.60
2019-05-13T18:30:45.931Z,53.70
2019-05-13T18:33:46.578Z,53.90
2019-05-13T18:36:47.402Z,54.40
2019-05-13T18:39:47.872Z,54.70
2019-05-13T18:45:52.541Z,56.50
2019-05-13T18:48:58.990Z,55.70
2019-05-13T18:51:54.967Z,55.60
2019-05-13T18:54:54.763Z,57.30
2019-05-13T18:57:54.313Z,56.10
2019-05-13T19:00:54.752Z,56.30
2019-05-13T19:03:55.057Z,58.00
2019-05-13T19:06:55.475Z,58.00
2019-05-13T19:09:55.286Z,57.70
2019-05-13T19:12:57.864Z,58.70
2019-05-13T19:15:56.654Z,59.60
2019-05-13T19:18:56.350Z,60.10
2019-05-13T19:21:56.776Z,63.10
2019-05-13T19:24:57.180Z,64.40
2019-05-13T19:27:57.065Z,63.10
2019-05-13T19:30:57.044Z,63.30
2019-05-13T19:33:57.095Z,63.00
2019-05-13T19:36:57.383Z,63.60
2019-05-13T19:39:57.731Z,63.40
2019-05-13T19:42:58.258Z,65.90
2019-05-13T19:45:57.942Z,65.80
2019-05-13T19:48:57.399Z,65.70
2019-05-13T19:51:56.834Z,67.80
2019-05-13T19:54:57.315Z,68.80
2019-05-13T19:57:57.468Z,67.50
2019-05-13T20:00:57.032Z,68.60
2019-05-13T20:03:57.420Z,71.90
2019-05-13T20:06:57.721Z,72.90
2019-05-13T20:09:58.119Z,71.60
2019-05-13T20:12:57.704Z,71.70
2019-05-13T20:15:57.937Z,72.30
2019-05-13T20:18:58.296Z,73.70
2019-05-13T20:21:58.756Z,73.80
2019-05-13T20:24:59.164Z,72.40
2019-05-13T20:27:59.393Z,70.30
2019-05-13T20:31:01.763Z,69.30
2019-05-13T20:34:01.685Z,70.50
2019-05-13T20:37:02.373Z,69.60
2019-05-13T20:40:02.782Z,69.90
2019-05-13T20:43:04.169Z,69.60
2019-05-13T20:46:03.733Z,70.50
2019-05-13T20:49:03.412Z,71.70
2019-05-13T20:52:03.069Z,72.80
2019-05-13T20:55:03.274Z,74.10
2019-05-13T20:58:03.498Z,73.90
2019-05-13T21:01:03.006Z,75.30
2019-05-13T21:04:03.234Z,75.70
2019-05-13T21:07:03.692Z,75.90
2019-05-13T21:10:03.863Z,75.40
2019-05-13T21:13:03.373Z,75.10
2019-05-13T21:16:03.697Z,72.10
2019-05-13T21:19:03.183Z,71.70
2019-05-13T21:22:03.505Z,70.60
2019-05-13T21:25:03.866Z,70.10
2019-05-13T21:28:03.438Z,70.00
2019-05-13T21:31:02.905Z,70.50
2019-05-13T21:34:03.299Z,70.50
2019-05-13T21:37:03.522Z,70.50
2019-05-13T21:40:03.278Z,70.70
2019-05-13T21:43:03.106Z,71.40
2019-05-13T21:46:03.239Z,71.80
2019-05-13T21:49:03.022Z,70.80
2019-05-13T21:52:03.305Z,72.10
2019-05-13T21:55:03.582Z,73.80
2019-05-13T21:58:03.680Z,75.70
2019-05-13T22:01:03.214Z,79.80
2019-05-13T22:04:02.858Z,79.10
2019-05-13T22:07:03.131Z,77.10
2019-05-13T22:10:02.724Z,77.70
2019-05-13T22:13:02.178Z,80.70
2019-05-13T22:16:02.442Z,85.80
2019-05-13T22:19:03.560Z,82.20
2019-05-13T22:22:04.014Z,79.10
2019-05-13T22:25:04.512Z,81.60
2019-05-13T22:28:05.186Z,88.40
2019-05-13T22:31:05.683Z,92.60
2019-05-13T22:34:06.227Z,96.10
2019-05-13T22:37:06.988Z,96.10
2019-05-13T22:40:07.196Z,96.40
2019-05-13T22:43:07.991Z,96.70
2019-05-13T22:46:08.409Z,99.60
2019-05-13T22:49:08.677Z,99.90
2019-05-13T22:52:11.405Z,99.90
2019-05-13T22:55:11.865Z,99.90
2019-05-13T22:58:12.218Z,99.90
2019-05-13T23:01:13.655Z,99.90
2019-05-13T23:04:14.698Z,99.90
2019-05-13T23:07:03.431Z,99.90
2019-05-13T23:10:11.924Z,99.10
2019-05-13T23:13:13.797Z,99.90
2019-05-13T23:16:14.577Z,99.90
2019-05-13T23:19:14.993Z,99.90
2019-05-13T23:22:15.272Z,98.90
2019-05-13T23:25:15.674Z,97.90
2019-05-13T23:28:04.313Z,96.60
2019-05-13T23:31:12.452Z,96.30
2019-05-13T23:34:15.130Z,95.40
2019-05-13T23:37:16.335Z,94.70
2019-05-13T23:40:06.521Z,94.80
2019-05-13T23:43:14.452Z,94.30
2019-05-13T23:46:14.801Z,94.50
2019-05-13T23:49:16.058Z,94.30
2019-05-13T23:52:16.538Z,94.20
2019-05-13T23:55:16.902Z,94.70
2019-05-13T23:58:17.330Z,95.30
